This demonstration page uses our WeatherBlox Daily Observations layout. Learn more.

41.55636, -103.73856

Hourly Observations for January 27, 2018

Temp ( °F °C ) Dew Point ( °F °C ) Humidity (%) Winds ( mph kmh ) Pressure ( in mb ) Visibility ( mi km ) Precip ( " mm )
12:53 am 00:53 Clear 18 -7.8 13 -10.6 81 81 WNW 9 15 30.21 1023 10 16.09344 0 0
1:53 am 01:53 Clear 23 -5 14 -10 68 68 WNW 9 15 30.21 1023 10 16.09344 0 0
2:53 am 02:53 Clear 20 -6.7 14 -10 78 78 NW 12 19 30.24 1024 10 16.09344 0 0
3:53 am 03:53 Clear 21 -6.1 14 -10 74 74 WNW 12 19 30.24 1024 10 16.09344 0 0
4:53 am 04:53 Clear 24 -4.4 15 -9.4 68 68 WNW 13 20 30.24 1024 10 16.09344 0 0
5:53 am 05:53 Clear 21 -6.1 14 -10 74 74 NNW 7 11 30.3 1026 10 16.09344 0 0
6:53 am 06:53 Clear 20 -6.7 14 -10 78 78 NNW 5 7 30.33 1027 10 16.09344 0 0
7:53 am 07:53 Sunny 19 -7.2 13 -10.6 77 77 Calm 30.33 1027 10 16.09344 0 0
8:53 am 08:53 Sunny 25 -3.9 17 -8.3 72 72 SSW 5 7 30.33 1027 10 16.09344 0 0
9:53 am 09:53 Sunny 29 -1.7 19 -7.2 66 66 ESE 7 11 30.36 1028 10 16.09344 0 0
10:53 am 10:53 Sunny 34 1.1 21 -6.1 59 59 SE 5 7 30.33 1027 10 16.09344 0 0
11:53 am 11:53 Sunny 40 4.4 20 -6.7 45 45 W 5 7 30.3 1026 10 16.09344 0 0
12:53 pm 12:53 Sunny 41 5 21 -6.1 45 45 W 16 26 30.24 1024 10 16.09344 0 0
1:53 pm 13:53 Sunny 41 5 22 -5.6 47 47 W 12 19 30.24 1024 10 16.09344 0 0
2:53 pm 14:53 Sunny 41 5 22 -5.6 47 47 W 9 15 30.24 1024 10 16.09344 0 0
3:53 pm 15:53 Sunny 40 4.4 24 -4.4 53 53 W 10 17 30.24 1024 10 16.09344 0 0
4:53 pm 16:53 Sunny 36 2.2 23 -5 59 59 W 9 15 30.27 1025 10 16.09344 0 0
5:53 pm 17:53 Clear 31 -0.6 22 -5.6 69 69 Calm 30.3 1026 10 16.09344 0 0
6:53 pm 18:53 Clear 28 -2.2 21 -6.1 75 75 NW 6 9 30.33 1027 10 16.09344 0 0
7:53 pm 19:53 Clear 26 -3.3 19 -7.2 75 75 Calm 30.33 1027 10 16.09344 0 0
8:53 pm 20:53 Clear 25 -3.9 18 -7.8 75 75 NNW 6 9 30.3 1026 10 16.09344 0 0
9:53 pm 21:53 Clear 25 -3.9 18 -7.8 75 75 SSE 3 6 30.3 1026 10 16.09344 0 0
10:53 pm 22:53 Clear 20 -6.7 16 -8.9 85 85 N 3 6 30.3 1026 10 16.09344 0 0
11:53 pm 23:53 Clear 21 -6.1 15 -9.4 78 78 Calm 30.27 1025 10 16.09344 0 0

Powered by AerisWeather